Sinclair, Maine
Current Conditions -  °F | °C
As of 8:53 AM on Tuesday 21 Oct 2014 (Local Time) from KFVE Reporting Station
Clear Clear  
Wind Chill: 33°   Ceiling: Unl
Heat Index: 33°   Visibility: 10mi
Dew Point: 27°   Wind: 3mph
Humidity: 78%   Direction: 290°WNW
Pressure: 30.07"   Gusts: NA
Location:  47.17°N, 68.27°W
Report Text: KFVE 211253Z AUTO 29003KT 10SM CLR 01/M03 A3007 RMK AO2 SLP193 T00061028
Loading
Personal Weather Stations






























Interactive Weather Map
Tropical Storm Tracking
New forecast layout! Learn more

10-Day Weather Forecast

Advertisements
Track Severe Weather on mobile